West Navigator — 3ERR2 — position and weather

sailwx.info

Track history (hours):
 
Tides and Currents Weather Stations Pressure Air Temp Water Temp Dewpoint Dewpoint Depression Visibility Wind Speed Wind Dir Waves Ship Positions

West Navigator

Last reported at 2017-Jan-19 18:00 UTC. Time now 2017-Jan-19 21:32 UTC.
Position N 60°42' E 005°06'.

Length 253 m; draft 15 m.

Type: Other ship. MMSI: 370144000.

Wind from 270 at 7 knots gusting 16

Waves 0.5 meters (2 feet), 4 second period

Barometer 1027.3 mb
Air temperature 8.2 ° C
Dewpoint 8.2 ° C

Date/timePositionNaut miles runAvg speedWind from/ knotsBaromVisibWave heightAir tempDewpointWater temp
2017-Jan-19 18:00N 60°42' E 005°06'0 0.0 270 / 7 gusting 161027.3 0.5 8.2 8.2
2017-Jan-19 15:00N 60°42' E 005°06'0 0.0 260 / 71027.1 3.9 8.2 8.2
2017-Jan-19 12:00N 60°42' E 005°06'0 0.0 250 / 9 gusting 181027.3 0.9 8.3 8.2
2017-Jan-19 09:00N 60°42' E 005°06'0 0.0 270 / 91027.1 0.5 8.3 8.3
2017-Jan-19 06:00N 60°42' E 005°06'0 0.0 250 / 10 gusting 141026.1 1.0 8.1 8.1
2017-Jan-19 03:10N 60°42' E 005°06'0 0.0 230 / 61026.6 0.8 7.7 7.7
2017-Jan-19 00:00N 60°42' E 005°06'0 0.0 240 / 7 gusting 131026.7 0.9 8.0 8.0
2017-Jan-18 21:00N 60°42' E 005°06'0 0.0 250 / 71027.1 0.6 8.0 8.0
2017-Jan-18 18:00N 60°42' E 005°06'0 0.0 220 / 6 gusting 181026.4 0.4 7.5 7.5
2017-Jan-18 15:00N 60°42' E 005°06'0 0.0 190 / 131026.0 2.0 7.3 7.2
2017-Jan-18 12:00N 60°42' E 005°06'0 0.0 200 / 10 gusting 171027.1 1.6 7.1 7.1
2017-Jan-18 09:00N 60°42' E 005°06'0 0.0 170 / 131026.9 2.2 6.7 6.7
2017-Jan-18 06:00N 60°42' E 005°06'0 0.0 170 / 10 gusting 151026.9 1.1 6.3 6.3
2017-Jan-18 03:00N 60°42' E 005°06'0 0.0 160 / 121027.4 0.3 6.2 6.2
2017-Jan-18 00:00N 60°42' E 005°06'0 0.0 140 / 8 gusting 141028.5 0.3 6.0 6.0
2017-Jan-17 21:00N 60°42' E 005°06'0 0.0 130 / 91028.4 1.0 5.7 5.7
2017-Jan-17 18:00N 60°42' E 005°06'0 0.0 130 / 8 gusting 161027.6 1.9 5.2 5.2
2017-Jan-17 15:00N 60°42' E 005°06'0 0.0 130 / 91027.0 0.3 5.0 5.0
2017-Jan-17 12:00N 60°42' E 005°06'0 0.0 130 / 10 gusting 171027.3 1.8 4.5 4.5
2017-Jan-17 09:00N 60°42' E 005°06'0 0.0 120 / 111027.4 0.3 3.6 3.6
2017-Jan-17 06:00N 60°42' E 005°06'0 0.0 120 / 13 gusting 231027.1 0.4 2.8 2.8
2017-Jan-17 03:00N 60°42' E 005°06'0 0.0 130 / 151027.6 0.3 2.2 1.1
2017-Jan-17 00:00N 60°42' E 005°06'0 0.0 120 / 17 gusting 221028.1 0.3 0.3-0.6
2017-Jan-16 21:00N 60°42' E 005°06'0 0.0 130 / 151028.8 4.4 0.4-3.5
2017-Jan-16 18:00N 60°42' E 005°06'0 0.0 130 / 12 gusting 161028.5 3.1 1.2-9.8
2017-Jan-16 15:00N 60°42' E 005°06'0 0.0 120 / 101028.5 3.0-0.2-7.2
2017-Jan-16 12:00N 60°42' E 005°06'0 0.0 120 / 7 gusting 111028.3 3.0-1.4-5.5
2017-Jan-16 09:00N 60°42' E 005°06'0 0.0 140 / 51027.8 4.4-3.3-6.2
2017-Jan-16 06:00N 60°42' E 005°06'0 0.0 110 / 4 gusting 71026.9 4.6-4.1-6.4
2017-Jan-16 03:00N 60°42' E 005°06'0 0.0 080 / 21026.0 3.2-3.9-5.5
2017-Jan-16 00:00N 60°42' E 005°06'0 0.0 070 / 2 gusting 51026.2 1.9-3.9-5.1
2017-Jan-15 21:00N 60°42' E 005°06'0 0.0 030 / 21025.4 3.9-4.2-5.0
2017-Jan-15 18:00N 60°42' E 005°06'0 0.0 090 / 2 gusting 51024.5 3.1-3.4-4.6
2017-Jan-15 15:00N 60°42' E 005°06'0 0.0 020 / 31022.4 1.6-3.1-4.5
2017-Jan-15 12:00N 60°42' E 005°06'0 0.0 110 / 4 gusting 71020.8 1.9-2.4-4.3
2017-Jan-15 09:00N 60°42' E 005°06'0 0.0 350 / 21019.2 1.0-3.9-4.4
2017-Jan-15 06:00N 60°42' E 005°06'0 0.0 010 / 3 gusting 71016.8 1.3-3.8-4.2
2017-Jan-15 03:00N 60°42' E 005°06'0 0.0 120 / 21015.3 0.8-2.8-3.3
2017-Jan-15 00:00N 60°42' E 005°06'0 0.0 120 / 4 gusting 91014.3 0.4-1.8-2.1
2017-Jan-14 21:00N 60°42' E 005°06'0 0.0 180 / 51013.0 0.9-1.4-1.6
2017-Jan-14 18:00N 60°42' E 005°06'0 0.0 030 / 4 gusting 111011.1 0.7-0.9-1.1
2017-Jan-14 15:00N 60°42' E 005°06'0 0.0 350 / 41008.7 1.0-1.0-1.6
2017-Jan-14 12:00N 60°42' E 005°06'0 0.0 340 / 6 gusting 201006.4 0.8-0.4-2.9
2017-Jan-14 09:00N 60°42' E 005°06'0 0.0 010 / 81003.5 0.7-0.2-3.2
2017-Jan-14 06:00N 60°42' E 005°06'0 0.0 010 / 9 gusting 241001.1 0.5 0.8-2.7
2017-Jan-14 03:00N 60°42' E 005°06'0 0.0 010 / 10998.5 0.6 0.8-0.8
2017-Jan-14 00:00N 60°42' E 005°06'0 0.0 010 / 6 gusting 22997.5 0.6 0.8-0.6
2017-Jan-13 21:00N 60°42' E 005°06'0 0.0 310 / 12996.6 1.3 0.6-0.7
2017-Jan-13 18:00N 60°42' E 005°06'0 0.0 340 / 13 gusting 25995.1 0.7 2.4-1.1
2017-Jan-13 15:00N 60°42' E 005°06'0 0.0 350 / 11993.1 3.3 2.2 1.0
2017-Jan-13 12:00N 60°42' E 005°06'0 0.0 330 / 1 gusting 10990.3 2.1 2.1 1.2
2017-Jan-13 09:00N 60°42' E 005°06'0 0.0 020 / 5987.4 3.1 1.8 0.5
2017-Jan-13 06:00N 60°42' E 005°06'0 0.0 020 / 6 gusting 23983.1 0.6 2.3 0.9
2017-Jan-13 03:00N 60°42' E 005°06'0 0.0 110 / 13977.9 0.4 1.2 1.2
2017-Jan-13 00:00N 60°42' E 005°06'0 0.0 150 / 20 gusting 28975.7 0.5 1.3 1.1
2017-Jan-12 21:00N 60°42' E 005°06'0 0.0 190 / 19975.5 0.5 3.5 1.0
2017-Jan-12 18:00N 60°42' E 005°06'0 0.0 260 / 11 gusting 28977.2 2.5 2.8 0.7
2017-Jan-12 15:00N 60°42' E 005°06'0 0.0 300 / 11977.1 4.2 3.4 0.9
2017-Jan-12 12:00N 60°42' E 005°06'0 0.0 290 / 13 gusting 28976.1 1.5 3.0 1.6
2017-Jan-12 09:00N 60°42' E 005°06'0 0.0 290 / 12974.4 0.6 3.8 1.7
2017-Jan-12 06:00N 60°42' E 005°06'0 0.0 260 / 12 gusting 28973.0 0.6 4.2 2.4
2017-Jan-12 03:00N 60°42' E 005°06'0 0.0 270 / 10972.8 0.5 5.0 3.3
2017-Jan-12 00:00N 60°42' E 005°06'0 0.0 290 / 16 gusting 26973.7 0.3 3.3 2.5
2017-Jan-11 21:00N 60°42' E 005°06'0 0.0 280 / 9975.5 1.4 3.2 0.9
2017-Jan-11 18:00N 60°42' E 005°06'0 0.0 300 / 8 gusting 25976.3 1.4 2.7 1.0
2017-Jan-11 15:00N 60°42' E 005°06'0 0.0 330 / 11975.4 1.7 3.3 1.6
2017-Jan-11 12:00N 60°42' E 005°06'0 0.0 330 / 7 gusting 16971.7 0.7 4.2 3.7
2017-Jan-11 09:00N 60°42' E 005°06'0 0.0 350 / 4969.2 2.1 3.7 2.7
2017-Jan-11 06:00N 60°42' E 005°06'0 0.0 120 / 10 gusting 27970.8 0.3 3.9 2.9
2017-Jan-11 03:00N 60°42' E 005°06'0 0.0 190 / 15978.5 0.6 4.9 4.0
2017-Jan-11 00:00N 60°42' E 005°06'0 0.0 200 / 16 gusting 27984.1 0.4 5.5 4.8
2017-Jan-10 21:00N 60°42' E 005°06'0 0.0 220 / 13988.3 0.7 6.4 3.3
2017-Jan-10 18:00N 60°42' E 005°06'0 0.0 170 / 20 gusting 33989.3 0.4 5.2 4.5
2017-Jan-10 15:00N 60°42' E 005°06'0 0.0 160 / 25991.2 0.5 5.3 3.1
2017-Jan-10 12:00N 60°42' E 005°06'0 0.0 160 / 21 gusting 25993.8 0.6 6.2 1.5
2017-Jan-10 09:00N 60°42' E 005°06'0 0.0 130 / 13995.1 2.1 5.4 2.6
2017-Jan-10 06:00N 60°42' E 005°06'0 0.0 150 / 14 gusting 24995.8 0.5 5.5 2.8
2017-Jan-10 03:00N 60°42' E 005°06'0 0.0 160 / 11996.4 0.5 5.6 4.1
2017-Jan-10 00:00N 60°42' E 005°06'0 0.0 150 / 11 gusting 27996.7 0.4 5.8 4.4
2017-Jan-09 21:00N 60°42' E 005°06'0 0.0 170 / 11996.7 0.9 6.3 5.9
2017-Jan-09 18:00N 60°42' E 005°06'   170 / 22 gusting 29996.7 0.3 7.3 6.3
Track history (hours):
 
Tides and Currents Weather Stations Pressure Air Temp Water Temp Dewpoint Dewpoint Depression Visibility Wind Speed Wind Dir Waves Ship Positions

West Navigator

Last reported at 2017-Jan-19 18:00 UTC. Time now 2017-Jan-19 21:32 UTC.
Position N 60°42' E 005°06'.

Length 253 m; draft 15 m.

Type: Other ship. MMSI: 370144000.

Wind from 270 at 7 knots gusting 16

Waves 0.5 meters (2 feet), 4 second period

Barometer 1027.3 mb
Air temperature 8.2 ° C
Dewpoint 8.2 ° C

Date/timePositionNaut miles runAvg speedWind from/ knotsBaromVisibWave heightAir tempDewpointWater temp
2017-Jan-19 18:00N 60°42' E 005°06'0 0.0 270 / 7 gusting 161027.3 0.5 8.2 8.2
2017-Jan-19 15:00N 60°42' E 005°06'0 0.0 260 / 71027.1 3.9 8.2 8.2
2017-Jan-19 12:00N 60°42' E 005°06'0 0.0 250 / 9 gusting 181027.3 0.9 8.3 8.2
2017-Jan-19 09:00N 60°42' E 005°06'0 0.0 270 / 91027.1 0.5 8.3 8.3
2017-Jan-19 06:00N 60°42' E 005°06'0 0.0 250 / 10 gusting 141026.1 1.0 8.1 8.1
2017-Jan-19 03:10N 60°42' E 005°06'0 0.0 230 / 61026.6 0.8 7.7 7.7
2017-Jan-19 00:00N 60°42' E 005°06'0 0.0 240 / 7 gusting 131026.7 0.9 8.0 8.0
2017-Jan-18 21:00N 60°42' E 005°06'0 0.0 250 / 71027.1 0.6 8.0 8.0
2017-Jan-18 18:00N 60°42' E 005°06'0 0.0 220 / 6 gusting 181026.4 0.4 7.5 7.5
2017-Jan-18 15:00N 60°42' E 005°06'0 0.0 190 / 131026.0 2.0 7.3 7.2
2017-Jan-18 12:00N 60°42' E 005°06'0 0.0 200 / 10 gusting 171027.1 1.6 7.1 7.1
2017-Jan-18 09:00N 60°42' E 005°06'0 0.0 170 / 131026.9 2.2 6.7 6.7
2017-Jan-18 06:00N 60°42' E 005°06'0 0.0 170 / 10 gusting 151026.9 1.1 6.3 6.3
2017-Jan-18 03:00N 60°42' E 005°06'0 0.0 160 / 121027.4 0.3 6.2 6.2
2017-Jan-18 00:00N 60°42' E 005°06'0 0.0 140 / 8 gusting 141028.5 0.3 6.0 6.0
2017-Jan-17 21:00N 60°42' E 005°06'0 0.0 130 / 91028.4 1.0 5.7 5.7
2017-Jan-17 18:00N 60°42' E 005°06'0 0.0 130 / 8 gusting 161027.6 1.9 5.2 5.2
2017-Jan-17 15:00N 60°42' E 005°06'0 0.0 130 / 91027.0 0.3 5.0 5.0
2017-Jan-17 12:00N 60°42' E 005°06'0 0.0 130 / 10 gusting 171027.3 1.8 4.5 4.5
2017-Jan-17 09:00N 60°42' E 005°06'0 0.0 120 / 111027.4 0.3 3.6 3.6
2017-Jan-17 06:00N 60°42' E 005°06'0 0.0 120 / 13 gusting 231027.1 0.4 2.8 2.8
2017-Jan-17 03:00N 60°42' E 005°06'0 0.0 130 / 151027.6 0.3 2.2 1.1
2017-Jan-17 00:00N 60°42' E 005°06'0 0.0 120 / 17 gusting 221028.1 0.3 0.3-0.6
2017-Jan-16 21:00N 60°42' E 005°06'0 0.0 130 / 151028.8 4.4 0.4-3.5
2017-Jan-16 18:00N 60°42' E 005°06'0 0.0 130 / 12 gusting 161028.5 3.1 1.2-9.8
2017-Jan-16 15:00N 60°42' E 005°06'0 0.0 120 / 101028.5 3.0-0.2-7.2
2017-Jan-16 12:00N 60°42' E 005°06'0 0.0 120 / 7 gusting 111028.3 3.0-1.4-5.5
2017-Jan-16 09:00N 60°42' E 005°06'0 0.0 140 / 51027.8 4.4-3.3-6.2
2017-Jan-16 06:00N 60°42' E 005°06'0 0.0 110 / 4 gusting 71026.9 4.6-4.1-6.4
2017-Jan-16 03:00N 60°42' E 005°06'0 0.0 080 / 21026.0 3.2-3.9-5.5
2017-Jan-16 00:00N 60°42' E 005°06'0 0.0 070 / 2 gusting 51026.2 1.9-3.9-5.1
2017-Jan-15 21:00N 60°42' E 005°06'0 0.0 030 / 21025.4 3.9-4.2-5.0
2017-Jan-15 18:00N 60°42' E 005°06'0 0.0 090 / 2 gusting 51024.5 3.1-3.4-4.6
2017-Jan-15 15:00N 60°42' E 005°06'0 0.0 020 / 31022.4 1.6-3.1-4.5
2017-Jan-15 12:00N 60°42' E 005°06'0 0.0 110 / 4 gusting 71020.8 1.9-2.4-4.3
2017-Jan-15 09:00N 60°42' E 005°06'0 0.0 350 / 21019.2 1.0-3.9-4.4
2017-Jan-15 06:00N 60°42' E 005°06'0 0.0 010 / 3 gusting 71016.8 1.3-3.8-4.2
2017-Jan-15 03:00N 60°42' E 005°06'0 0.0 120 / 21015.3 0.8-2.8-3.3
2017-Jan-15 00:00N 60°42' E 005°06'0 0.0 120 / 4 gusting 91014.3 0.4-1.8-2.1
2017-Jan-14 21:00N 60°42' E 005°06'0 0.0 180 / 51013.0 0.9-1.4-1.6
2017-Jan-14 18:00N 60°42' E 005°06'0 0.0 030 / 4 gusting 111011.1 0.7-0.9-1.1
2017-Jan-14 15:00N 60°42' E 005°06'0 0.0 350 / 41008.7 1.0-1.0-1.6
2017-Jan-14 12:00N 60°42' E 005°06'0 0.0 340 / 6 gusting 201006.4 0.8-0.4-2.9
2017-Jan-14 09:00N 60°42' E 005°06'0 0.0 010 / 81003.5 0.7-0.2-3.2
2017-Jan-14 06:00N 60°42' E 005°06'0 0.0 010 / 9 gusting 241001.1 0.5 0.8-2.7
2017-Jan-14 03:00N 60°42' E 005°06'0 0.0 010 / 10998.5 0.6 0.8-0.8
2017-Jan-14 00:00N 60°42' E 005°06'0 0.0 010 / 6 gusting 22997.5 0.6 0.8-0.6
2017-Jan-13 21:00N 60°42' E 005°06'0 0.0 310 / 12996.6 1.3 0.6-0.7
2017-Jan-13 18:00N 60°42' E 005°06'0 0.0 340 / 13 gusting 25995.1 0.7 2.4-1.1
2017-Jan-13 15:00N 60°42' E 005°06'0 0.0 350 / 11993.1 3.3 2.2 1.0
2017-Jan-13 12:00N 60°42' E 005°06'0 0.0 330 / 1 gusting 10990.3 2.1 2.1 1.2
2017-Jan-13 09:00N 60°42' E 005°06'0 0.0 020 / 5987.4 3.1 1.8 0.5
2017-Jan-13 06:00N 60°42' E 005°06'0 0.0 020 / 6 gusting 23983.1 0.6 2.3 0.9
2017-Jan-13 03:00N 60°42' E 005°06'0 0.0 110 / 13977.9 0.4 1.2 1.2
2017-Jan-13 00:00N 60°42' E 005°06'0 0.0 150 / 20 gusting 28975.7 0.5 1.3 1.1
2017-Jan-12 21:00N 60°42' E 005°06'0 0.0 190 / 19975.5 0.5 3.5 1.0
2017-Jan-12 18:00N 60°42' E 005°06'0 0.0 260 / 11 gusting 28977.2 2.5 2.8 0.7
2017-Jan-12 15:00N 60°42' E 005°06'0 0.0 300 / 11977.1 4.2 3.4 0.9
2017-Jan-12 12:00N 60°42' E 005°06'0 0.0 290 / 13 gusting 28976.1 1.5 3.0 1.6
2017-Jan-12 09:00N 60°42' E 005°06'0 0.0 290 / 12974.4 0.6 3.8 1.7
2017-Jan-12 06:00N 60°42' E 005°06'0 0.0 260 / 12 gusting 28973.0 0.6 4.2 2.4
2017-Jan-12 03:00N 60°42' E 005°06'0 0.0 270 / 10972.8 0.5 5.0 3.3
2017-Jan-12 00:00N 60°42' E 005°06'0 0.0 290 / 16 gusting 26973.7 0.3 3.3 2.5
2017-Jan-11 21:00N 60°42' E 005°06'0 0.0 280 / 9975.5 1.4 3.2 0.9
2017-Jan-11 18:00N 60°42' E 005°06'0 0.0 300 / 8 gusting 25976.3 1.4 2.7 1.0
2017-Jan-11 15:00N 60°42' E 005°06'0 0.0 330 / 11975.4 1.7 3.3 1.6
2017-Jan-11 12:00N 60°42' E 005°06'0 0.0 330 / 7 gusting 16971.7 0.7 4.2 3.7
2017-Jan-11 09:00N 60°42' E 005°06'0 0.0 350 / 4969.2 2.1 3.7 2.7
2017-Jan-11 06:00N 60°42' E 005°06'0 0.0 120 / 10 gusting 27970.8 0.3 3.9 2.9
2017-Jan-11 03:00N 60°42' E 005°06'0 0.0 190 / 15978.5 0.6 4.9 4.0
2017-Jan-11 00:00N 60°42' E 005°06'0 0.0 200 / 16 gusting 27984.1 0.4 5.5 4.8
2017-Jan-10 21:00N 60°42' E 005°06'0 0.0 220 / 13988.3 0.7 6.4 3.3
2017-Jan-10 18:00N 60°42' E 005°06'0 0.0 170 / 20 gusting 33989.3 0.4 5.2 4.5
2017-Jan-10 15:00N 60°42' E 005°06'0 0.0 160 / 25991.2 0.5 5.3 3.1
2017-Jan-10 12:00N 60°42' E 005°06'0 0.0 160 / 21 gusting 25993.8 0.6 6.2 1.5
2017-Jan-10 09:00N 60°42' E 005°06'0 0.0 130 / 13995.1 2.1 5.4 2.6
2017-Jan-10 06:00N 60°42' E 005°06'0 0.0 150 / 14 gusting 24995.8 0.5 5.5 2.8
2017-Jan-10 03:00N 60°42' E 005°06'0 0.0 160 / 11996.4 0.5 5.6 4.1
2017-Jan-10 00:00N 60°42' E 005°06'0 0.0 150 / 11 gusting 27996.7 0.4 5.8 4.4
2017-Jan-09 21:00N 60°42' E 005°06'0 0.0 170 / 11996.7 0.9 6.3 5.9
2017-Jan-09 18:00N 60°42' E 005°06'   170 / 22 gusting 29996.7 0.3 7.3 6.3

Dump ship's entire track history